createdAt,value
2022-08-19T00:01:28.989Z,60.78
2022-08-19T00:05:05.290Z,61.39
2022-08-19T00:08:29.149Z,59.89
2022-08-19T00:12:14.086Z,60.15
2022-08-19T00:16:00.125Z,59.86
2022-08-19T00:19:24.900Z,59.76
2022-08-19T00:22:30.344Z,60.19
2022-08-19T00:25:37.808Z,60.13
2022-08-19T00:28:44.825Z,61.09
2022-08-19T00:31:48.737Z,61.57
2022-08-19T00:35:20.484Z,61.93
2022-08-19T00:38:46.358Z,61.73
2022-08-19T00:42:09.791Z,62.12
2022-08-19T00:45:21.424Z,61.87
2022-08-19T00:48:46.541Z,61.63
2022-08-19T00:51:54.273Z,61.34
2022-08-19T00:55:40.349Z,62.16
2022-08-19T00:59:09.865Z,61.99
2022-08-19T01:02:34.723Z,63.12
2022-08-19T01:06:01.056Z,62.10
2022-08-19T01:09:43.606Z,62.40
2022-08-19T01:13:06.920Z,63.23
2022-08-19T01:16:31.052Z,62.66
2022-08-19T01:19:44.665Z,63.91
2022-08-19T01:23:08.885Z,63.79
2022-08-19T01:26:32.266Z,64.05
2022-08-19T01:30:25.984Z,63.88
2022-08-19T01:34:10.397Z,63.80
2022-08-19T01:37:24.867Z,63.71
2022-08-19T01:40:39.247Z,63.30
2022-08-19T01:44:18.120Z,62.72
2022-08-19T01:48:01.312Z,63.19
2022-08-19T01:51:26.747Z,63.77
2022-08-19T01:54:58.755Z,63.00
2022-08-19T01:58:33.775Z,63.20
2022-08-19T02:01:41.330Z,63.44
2022-08-19T02:05:06.519Z,63.70
2022-08-19T02:08:17.508Z,63.12
2022-08-19T02:11:28.235Z,63.84
2022-08-19T02:14:35.281Z,62.68
2022-08-19T02:18:00.928Z,62.73
2022-08-19T02:21:24.897Z,63.00
2022-08-19T02:24:30.204Z,62.42
2022-08-19T02:27:55.064Z,62.48
2022-08-19T02:30:59.711Z,61.79
2022-08-19T02:34:04.817Z,61.87
2022-08-19T02:37:32.211Z,62.66
2022-08-19T02:40:41.769Z,63.02
2022-08-19T02:44:29.882Z,62.54
2022-08-19T02:47:50.101Z,62.42
2022-08-19T02:51:21.450Z,62.33
2022-08-19T02:54:45.153Z,62.53
2022-08-19T02:58:29.629Z,62.66
2022-08-19T03:01:53.012Z,62.30
2022-08-19T03:05:45.895Z,62.49
2022-08-19T03:09:08.743Z,62.22
2022-08-19T03:12:52.458Z,62.49
2022-08-19T03:16:19.083Z,62.60
2022-08-19T03:19:47.107Z,62.61
2022-08-19T03:23:13.818Z,62.65
2022-08-19T03:26:22.835Z,62.81
2022-08-19T03:29:32.773Z,62.63
2022-08-19T03:32:52.465Z,62.71
2022-08-19T03:36:24.332Z,62.37
2022-08-19T03:39:28.533Z,63.26
2022-08-19T03:42:48.691Z,62.90
2022-08-19T03:46:21.564Z,63.19
2022-08-19T03:49:48.742Z,62.72
2022-08-19T03:52:57.347Z,62.58
2022-08-19T03:56:03.197Z,62.95
2022-08-19T03:59:10.106Z,62.34
2022-08-19T04:02:13.917Z,62.57
2022-08-19T04:05:18.863Z,62.52
2022-08-19T04:08:56.163Z,62.23
2022-08-19T04:12:06.471Z,62.82
2022-08-19T04:15:13.098Z,62.35
2022-08-19T04:18:37.831Z,65.86
2022-08-19T04:22:00.487Z,64.03
2022-08-19T04:25:07.216Z,63.39
2022-08-19T04:28:30.607Z,64.04
2022-08-19T04:31:38.451Z,64.59
2022-08-19T04:35:02.343Z,64.68
2022-08-19T04:38:36.089Z,63.51
2022-08-19T04:42:20.684Z,62.15
2022-08-19T04:46:00.957Z,63.86
2022-08-19T04:49:24.847Z,63.09
2022-08-19T04:53:10.209Z,61.95
2022-08-19T05:00:48.068Z,61.43
2022-08-19T05:04:13.214Z,62.07
2022-08-19T05:07:58.128Z,60.34
2022-08-19T05:11:40.809Z,59.86
2022-08-19T05:14:53.217Z,59.78
2022-08-19T05:18:36.457Z,60.17
2022-08-19T05:22:20.232Z,59.63
2022-08-19T05:25:48.076Z,60.36
2022-08-19T05:29:40.348Z,58.85
2022-08-19T05:33:04.433Z,59.94
2022-08-19T05:36:35.139Z,58.45
2022-08-19T05:39:38.903Z,59.22
2022-08-19T05:42:43.599Z,57.32
2022-08-19T05:46:18.228Z,57.57
2022-08-19T05:49:42.187Z,56.45
2022-08-19T05:53:10.090Z,55.41
2022-08-19T05:56:54.830Z,56.23
2022-08-19T06:00:24.592Z,56.20
2022-08-19T06:03:29.492Z,55.47
2022-08-19T06:06:53.309Z,55.53
2022-08-19T06:10:18.361Z,54.57
2022-08-19T06:13:59.662Z,53.72
2022-08-19T06:17:47.602Z,54.63
2022-08-19T06:20:55.883Z,53.00
2022-08-19T06:24:25.671Z,51.99
2022-08-19T06:27:31.888Z,53.06
2022-08-19T06:30:35.127Z,51.09
2022-08-19T06:33:58.001Z,50.84
2022-08-19T06:37:06.633Z,50.41
2022-08-19T06:40:33.566Z,50.39
2022-08-19T06:44:00.379Z,48.92
2022-08-19T06:47:28.468Z,47.85
2022-08-19T06:51:00.503Z,48.50
2022-08-19T06:54:53.692Z,46.91
2022-08-19T06:58:43.152Z,46.30
2022-08-19T07:02:27.647Z,45.86
2022-08-19T07:06:43.168Z,45.18
2022-08-19T07:09:45.300Z,44.87
2022-08-19T07:13:07.662Z,44.96
2022-08-19T07:16:15.884Z,43.71
2022-08-19T07:19:28.334Z,43.82
2022-08-19T07:22:35.205Z,44.12
2022-08-19T07:25:59.776Z,42.64
2022-08-19T07:29:04.356Z,41.64
2022-08-19T07:32:14.617Z,41.90
2022-08-19T07:35:45.988Z,40.45
2022-08-19T07:39:15.972Z,41.77
2022-08-19T07:42:22.126Z,40.63
2022-08-19T07:45:45.913Z,40.25
2022-08-19T07:49:19.577Z,39.61
2022-08-19T07:52:25.795Z,39.16
2022-08-19T07:55:42.234Z,38.81
2022-08-19T07:58:57.384Z,38.55
2022-08-19T08:02:06.474Z,37.24
2022-08-19T08:05:32.512Z,35.86
2022-08-19T08:09:07.017Z,35.51
2022-08-19T08:12:42.686Z,35.06
2022-08-19T08:16:10.327Z,33.65
2022-08-19T08:19:25.328Z,33.26
2022-08-19T08:22:51.560Z,32.68
2022-08-19T08:26:16.474Z,32.72
2022-08-19T08:29:34.879Z,32.03
2022-08-19T08:32:43.303Z,32.13
2022-08-19T08:36:14.050Z,30.23
2022-08-19T08:39:39.600Z,29.66
2022-08-19T08:43:15.172Z,29.34
2022-08-19T08:46:43.145Z,29.87
2022-08-19T08:50:16.390Z,29.70
2022-08-19T08:53:29.643Z,29.82
2022-08-19T08:56:43.874Z,29.65
2022-08-19T09:00:35.752Z,28.89
2022-08-19T09:03:41.359Z,28.20
2022-08-19T09:15:17.609Z,28.33
2022-08-19T09:16:31.707Z,28.65
2022-08-19T09:19:34.133Z,27.58
2022-08-19T09:23:29.067Z,26.78
2022-08-19T09:27:18.621Z,26.95
2022-08-19T09:30:53.207Z,26.74
2022-08-19T09:34:24.311Z,26.35
2022-08-19T09:37:59.757Z,25.52
2022-08-19T09:41:36.023Z,23.72
2022-08-19T09:45:10.437Z,23.41
2022-08-19T09:49:06.271Z,24.34
2022-08-19T09:52:32.996Z,25.22
2022-08-19T09:56:04.311Z,24.51
2022-08-19T09:59:41.462Z,24.99
2022-08-19T10:03:29.948Z,24.57
2022-08-19T10:07:28.923Z,23.81
2022-08-19T10:11:27.765Z,24.43
2022-08-19T10:14:54.521Z,23.20
2022-08-19T10:18:22.646Z,22.98
2022-08-19T10:22:12.262Z,22.52
2022-08-19T10:25:54.827Z,21.98
2022-08-19T10:29:59.890Z,20.93
2022-08-19T10:33:42.571Z,22.17
2022-08-19T10:37:56.736Z,20.77
2022-08-19T10:41:17.856Z,21.18
2022-08-19T10:45:07.126Z,20.90
2022-08-19T10:48:45.408Z,20.95
2022-08-19T10:52:38.883Z,22.01
2022-08-19T10:56:40.050Z,21.88
2022-08-19T11:00:39.315Z,20.44
2022-08-19T11:04:14.690Z,19.44
2022-08-19T11:07:53.992Z,20.14
2022-08-19T11:11:41.923Z,19.66
2022-08-19T11:15:31.568Z,21.22
2022-08-19T11:19:15.323Z,20.88
2022-08-19T11:22:57.461Z,18.53
2022-08-19T11:26:40.857Z,18.89
2022-08-19T11:30:17.147Z,19.35
2022-08-19T11:34:10.414Z,18.42
2022-08-19T11:37:43.990Z,19.06
2022-08-19T11:41:55.916Z,19.21
2022-08-19T11:45:30.293Z,18.89
2022-08-19T11:49:00.483Z,17.73
2022-08-19T11:52:28.352Z,18.65
2022-08-19T11:56:20.976Z,18.87
2022-08-19T12:00:10.273Z,18.73
2022-08-19T12:04:02.885Z,18.94
2022-08-19T12:07:20.544Z,19.89
2022-08-19T12:11:17.157Z,19.71
2022-08-19T12:14:47.633Z,20.68
2022-08-19T12:18:56.966Z,20.08
2022-08-19T12:22:32.762Z,21.15
2022-08-19T12:26:15.537Z,20.79
2022-08-19T12:29:56.714Z,20.97
2022-08-19T12:33:45.351Z,21.13
2022-08-19T12:37:35.577Z,20.35
2022-08-19T12:41:27.015Z,20.99
2022-08-19T12:45:01.403Z,20.71
2022-08-19T12:48:56.162Z,21.67
2022-08-19T12:52:28.398Z,22.41
2022-08-19T12:56:32.841Z,21.79
2022-08-19T13:00:20.389Z,22.47
2022-08-19T13:04:09.624Z,22.24
2022-08-19T13:07:47.285Z,22.23
2022-08-19T13:11:35.681Z,22.29
2022-08-19T13:15:18.404Z,22.46
2022-08-19T13:19:01.121Z,22.45
2022-08-19T13:22:50.522Z,21.80
2022-08-19T13:26:32.945Z,21.29
2022-08-19T13:30:47.252Z,22.33
2022-08-19T13:34:32.384Z,23.19
2022-08-19T13:38:42.657Z,23.04
2022-08-19T13:42:10.393Z,24.09
2022-08-19T13:46:12.989Z,22.34
2022-08-19T13:49:49.346Z,24.75
2022-08-19T13:53:49.159Z,27.24
2022-08-19T13:57:34.171Z,27.55
2022-08-19T14:01:39.900Z,28.68
2022-08-19T14:05:44.637Z,30.43
2022-08-19T14:09:26.303Z,31.49
2022-08-19T14:13:35.070Z,32.75
2022-08-19T14:17:21.193Z,33.56
2022-08-19T14:21:26.534Z,34.47
2022-08-19T14:25:25.233Z,34.08
2022-08-19T14:29:31.701Z,34.05
2022-08-19T14:33:23.494Z,33.86
2022-08-19T14:37:34.184Z,34.06
2022-08-19T14:41:20.373Z,34.71
2022-08-19T14:45:17.975Z,34.01
2022-08-19T14:49:21.917Z,32.91
2022-08-19T14:53:12.691Z,31.90
2022-08-19T14:57:18.716Z,30.05
2022-08-19T15:00:53.549Z,29.63
2022-08-19T15:04:58.258Z,29.83
2022-08-19T15:08:33.316Z,29.66
2022-08-19T15:12:35.088Z,30.50
2022-08-19T15:16:05.685Z,30.12
2022-08-19T15:20:17.219Z,30.10
2022-08-19T15:23:53.937Z,30.48
2022-08-19T15:27:33.097Z,30.94
2022-08-19T15:31:07.056Z,30.56
2022-08-19T15:35:09.618Z,30.63
2022-08-19T15:38:39.554Z,30.94
2022-08-19T15:42:43.926Z,30.80
2022-08-19T15:46:25.377Z,30.97
2022-08-19T15:50:37.298Z,30.92
2022-08-19T15:54:18.030Z,31.12
2022-08-19T15:58:27.695Z,31.31
2022-08-19T16:02:11.633Z,31.41
2022-08-19T16:06:42.367Z,30.65
2022-08-19T16:10:26.825Z,31.17
2022-08-19T16:14:12.221Z,31.15
2022-08-19T16:17:48.972Z,31.23
2022-08-19T16:21:39.721Z,31.99
2022-08-19T16:25:14.766Z,32.17
2022-08-19T16:29:01.062Z,32.53
2022-08-19T16:32:53.370Z,32.71
2022-08-19T16:36:24.793Z,32.47
2022-08-19T16:40:18.061Z,32.59
2022-08-19T16:43:53.611Z,45.57
2022-08-19T16:48:00.708Z,41.76
2022-08-19T16:51:46.667Z,42.87
2022-08-19T16:55:33.033Z,40.77
2022-08-19T16:59:08.576Z,40.42
2022-08-19T17:03:14.724Z,39.83
2022-08-19T17:06:36.668Z,42.32
2022-08-19T17:09:41.625Z,41.86
2022-08-19T17:12:47.797Z,41.99
2022-08-19T17:15:52.916Z,41.55
2022-08-19T17:18:58.992Z,40.83
2022-08-19T17:22:06.375Z,41.05
2022-08-19T17:25:21.268Z,40.21
2022-08-19T17:28:29.267Z,41.31
2022-08-19T17:31:32.751Z,41.28
2022-08-19T17:34:40.198Z,40.54
2022-08-19T17:37:43.537Z,40.08
2022-08-19T17:41:04.172Z,39.71
2022-08-19T17:44:07.261Z,39.73
2022-08-19T17:47:13.042Z,39.70
2022-08-19T17:50:18.603Z,39.62
2022-08-19T17:53:22.019Z,39.27
2022-08-19T17:56:29.114Z,39.44
2022-08-19T17:59:32.230Z,39.25
2022-08-19T18:02:35.330Z,38.98
2022-08-19T18:06:00.825Z,39.27
2022-08-19T18:09:49.229Z,39.54
2022-08-19T18:13:17.254Z,40.35
2022-08-19T18:16:25.706Z,40.52
2022-08-19T18:19:41.544Z,47.17
2022-08-19T18:22:50.361Z,47.66
2022-08-19T18:25:55.366Z,47.33
2022-08-19T18:29:02.018Z,46.62
2022-08-19T18:32:15.183Z,46.78
2022-08-19T18:35:29.588Z,46.79
2022-08-19T18:39:03.913Z,46.90
2022-08-19T18:43:03.730Z,49.72
2022-08-19T18:46:38.787Z,61.59
2022-08-19T18:50:11.846Z,68.77
2022-08-19T18:53:53.285Z,71.24
2022-08-19T18:57:18.915Z,69.68
2022-08-19T19:00:38.490Z,71.43
2022-08-19T19:04:25.231Z,72.28
2022-08-19T19:07:56.014Z,73.50
2022-08-19T19:11:50.884Z,75.55
2022-08-19T19:15:43.072Z,77.65
2022-08-19T19:19:42.841Z,76.11
2022-08-19T19:23:22.590Z,76.56
2022-08-19T19:27:47.284Z,76.50
2022-08-19T19:31:34.172Z,85.30
2022-08-19T19:35:00.698Z,85.77
2022-08-19T19:38:48.644Z,95.51
2022-08-19T19:42:49.740Z,89.41
2022-08-19T19:45:54.763Z,89.04
2022-08-19T19:49:18.303Z,87.75
2022-08-19T19:52:46.073Z,87.78
2022-08-19T19:56:13.857Z,86.85
2022-08-19T19:59:51.652Z,88.25
2022-08-19T20:03:32.623Z,93.15
2022-08-19T20:07:15.660Z,94.62
2022-08-19T20:10:23.325Z,88.46
2022-08-19T20:13:47.877Z,89.29
2022-08-19T20:17:32.622Z,94.77
2022-08-19T20:21:17.973Z,97.55
2022-08-19T20:25:28.064Z,99.22
2022-08-19T20:29:37.905Z,100.00
2022-08-19T20:32:59.039Z,100.00
2022-08-19T20:36:22.500Z,100.00
2022-08-19T20:39:28.254Z,100.00
2022-08-19T20:42:35.551Z,100.00
2022-08-19T20:45:39.360Z,100.00
2022-08-19T20:48:50.104Z,100.00
2022-08-19T20:51:54.107Z,100.00
2022-08-19T20:54:56.885Z,100.00
2022-08-19T20:58:01.092Z,100.00
2022-08-19T21:01:07.862Z,100.00
2022-08-19T21:04:11.417Z,100.00
2022-08-19T21:07:15.311Z,100.00
2022-08-19T21:10:18.691Z,100.00
2022-08-19T21:13:23.030Z,100.00
2022-08-19T21:16:28.253Z,100.00
2022-08-19T21:19:31.167Z,100.00
2022-08-19T21:22:34.458Z,100.00
2022-08-19T21:25:37.261Z,100.00
2022-08-19T21:28:40.376Z,100.00
2022-08-19T21:31:43.428Z,100.00
2022-08-19T21:34:49.242Z,100.00
2022-08-19T21:37:52.151Z,100.00
2022-08-19T21:40:58.255Z,100.00
2022-08-19T21:44:01.444Z,100.00
2022-08-19T21:47:05.521Z,100.00
2022-08-19T21:50:12.701Z,100.00
2022-08-19T21:53:19.128Z,100.00
2022-08-19T21:56:25.366Z,100.00
2022-08-19T21:59:28.543Z,100.00
2022-08-19T22:02:31.681Z,100.00
2022-08-19T22:05:42.202Z,100.00
2022-08-19T22:08:48.160Z,100.00
2022-08-19T22:11:51.240Z,100.00
2022-08-19T22:14:58.540Z,100.00
2022-08-19T22:18:04.051Z,100.00
2022-08-19T22:21:11.680Z,100.00
2022-08-19T22:24:17.386Z,100.00
2022-08-19T22:27:28.495Z,100.00
2022-08-19T22:30:34.024Z,100.00
2022-08-19T22:33:39.209Z,100.00
2022-08-19T22:36:42.476Z,100.00
2022-08-19T22:39:50.582Z,100.00
2022-08-19T22:43:04.924Z,100.00
2022-08-19T22:46:17.438Z,100.00
2022-08-19T22:49:24.173Z,100.00
2022-08-19T22:52:31.810Z,100.00
2022-08-19T22:55:36.410Z,100.00
2022-08-19T22:58:42.339Z,100.00
2022-08-19T23:01:49.033Z,100.00
2022-08-19T23:04:52.416Z,100.00
2022-08-19T23:07:58.035Z,100.00
2022-08-19T23:11:01.191Z,100.00
2022-08-19T23:14:07.747Z,100.00
2022-08-19T23:17:11.826Z,100.00
2022-08-19T23:20:18.371Z,100.00
2022-08-19T23:23:24.908Z,100.00
2022-08-19T23:26:29.246Z,100.00
2022-08-19T23:29:54.931Z,100.00
2022-08-19T23:33:11.026Z,100.00
2022-08-19T23:36:21.678Z,100.00
2022-08-19T23:39:30.282Z,100.00
2022-08-19T23:42:55.283Z,100.00
2022-08-19T23:46:00.933Z,100.00
2022-08-19T23:49:04.123Z,100.00
2022-08-19T23:52:07.523Z,100.00
2022-08-19T23:55:11.185Z,100.00
2022-08-19T23:58:19.849Z,100.00
